Time;durP1;ratioP1;P1;durP2;ratioP2;P2;SDS_P1;SDS_P2;PMS_P1;PMS_P2;Temp;Humidity;BMP_temperature;BMP_pressure;BME280_temperature;BME280_humidity;BME280_pressure;Samples;Min_cycle;Max_cycle;Signal;HPM_P1;HPM_P2
2022/10/28 00:02:09;;;;;;;19.40;7.90;;;;;;;13.24;100.00;101820.28;5089704;28;20403;-74
2022/10/28 00:04:35;;;;;;;21.53;6.70;;;;;;;13.29;100.00;101825.25;5087597;28;20694;-74
2022/10/28 00:07:00;;;;;;;17.57;6.13;;;;;;;13.32;100.00;101831.22;5067195;28;20028;-74
2022/10/28 00:09:25;;;;;;;16.00;6.30;;;;;;;13.28;100.00;101827.13;5079791;28;20039;-74
2022/10/28 00:11:50;;;;;;;20.10;8.07;;;;;;;13.29;100.00;101828.00;5068860;28;20025;-74
2022/10/28 00:14:16;;;;;;;22.87;7.30;;;;;;;13.31;100.00;101823.16;5076456;28;20024;-74
2022/10/28 00:16:41;;;;;;;23.67;7.73;;;;;;;13.38;100.00;101821.31;5085213;28;20150;-73
2022/10/28 00:19:09;;;;;;;15.93;7.53;;;;;;;13.38;100.00;101819.44;5088359;28;20078;-74
2022/10/28 00:21:36;;;;;;;21.80;7.00;;;;;;;13.35;100.00;101816.22;5071194;28;20024;-74
2022/10/28 00:24:02;;;;;;;30.15;7.45;;;;;;;13.28;100.00;101816.13;5087215;28;20028;-74
2022/10/28 00:26:29;;;;;;;30.30;7.07;;;;;;;13.25;100.00;101807.41;5089437;28;20043;-74
2022/10/28 00:28:58;;;;;;;16.05;6.78;;;;;;;13.18;100.00;101810.06;5087334;28;20067;-74
2022/10/28 00:31:25;;;;;;;26.55;6.80;;;;;;;13.15;100.00;101809.59;5053691;28;20388;-74
2022/10/28 00:33:51;;;;;;;34.63;6.20;;;;;;;13.11;100.00;101813.75;5089142;28;20047;-74
2022/10/28 00:36:18;;;;;;;22.13;6.73;;;;;;;13.05;100.00;101820.88;5086406;28;20478;-74
2022/10/28 00:38:45;;;;;;;19.55;6.80;;;;;;;13.04;100.00;101815.56;5086494;28;20036;-73
2022/10/28 00:41:14;;;;;;;12.85;6.22;;;;;;;12.97;100.00;101818.22;5087163;28;20507;-74
2022/10/28 00:43:53;;;;;;;23.33;6.88;;;;;;;12.91;100.00;101815.34;5067665;28;20074;-74
2022/10/28 00:46:43;;;;;;;20.20;7.00;;;;;;;12.92;100.00;101817.06;5062921;28;20021;-74
2022/10/28 00:49:17;;;;;;;16.15;6.72;;;;;;;12.93;100.00;101818.75;5082129;28;20447;-75
2022/10/28 00:51:47;;;;;;;19.27;6.75;;;;;;;12.89;100.00;101820.16;5087367;28;20028;-74
2022/10/28 00:54:15;;;;;;;20.48;6.72;;;;;;;12.90;100.00;101819.13;5061769;28;20032;-74
2022/10/28 00:56:47;;;;;;;16.08;7.03;;;;;;;12.87;100.00;101814.84;5087456;28;20475;-74
2022/10/28 00:59:18;;;;;;;21.40;6.43;;;;;;;12.83;100.00;101813.53;5088156;28;20122;-74
2022/10/28 01:01:44;;;;;;;25.58;7.15;;;;;;;12.85;100.00;101810.56;5070914;28;20039;-74
2022/10/28 01:04:10;;;;;;;20.17;6.97;;;;;;;12.87;100.00;101803.00;5069731;28;20020;-74
2022/10/28 01:06:36;;;;;;;15.35;6.35;;;;;;;12.87;100.00;101792.84;5088592;28;20107;-75
2022/10/28 01:09:01;;;;;;;17.13;7.67;;;;;;;12.90;100.00;101794.38;5088307;28;20539;-73
2022/10/28 01:11:29;;;;;;;20.60;6.83;;;;;;;12.87;100.00;101801.09;5087412;28;20378;-74
2022/10/28 01:14:32;;;;;;;19.05;7.25;;;;;;;12.89;100.00;101798.16;5088458;28;20028;-74
2022/10/28 01:17:06;;;;;;;19.20;7.13;;;;;;;12.96;100.00;101800.00;5046625;28;20127;-75
2022/10/28 01:19:50;;;;;;;20.77;7.07;;;;;;;12.95;100.00;101801.03;5087349;28;20495;-74
2022/10/28 01:22:23;;;;;;;25.08;7.93;;;;;;;12.93;100.00;101791.25;5069682;28;20082;-75
2022/10/28 01:25:01;;;;;;;27.35;7.65;;;;;;;12.99;100.00;101788.63;5088651;28;20032;-74
2022/10/28 01:28:03;;;;;;;19.00;7.38;;;;;;;13.13;100.00;101776.75;5083249;28;20028;-74
2022/10/28 01:30:40;;;;;;;15.23;7.38;;;;;;;13.29;100.00;101773.78;5084494;28;20061;-76
2022/10/28 01:33:25;;;;;;;25.13;7.53;;;;;;;13.36;100.00;101763.75;5070144;28;20024;-75
2022/10/28 01:35:54;;;;;;;19.17;6.70;;;;;;;13.45;100.00;101770.81;5083229;28;20035;-73
2022/10/28 01:38:34;;;;;;;14.38;6.65;;;;;;;13.39;100.00;101765.25;5076855;28;20033;-75
2022/10/28 01:41:12;;;;;;;20.00;7.25;;;;;;;13.29;100.00;101759.19;5081817;28;20032;-74
2022/10/28 01:43:55;;;;;;;19.85;7.57;;;;;;;13.24;100.00;101772.69;5061068;28;20457;-74
2022/10/28 01:46:55;;;;;;;17.45;7.40;;;;;;;13.23;100.00;101770.97;5086447;28;20032;-74
2022/10/28 01:49:33;;;;;;;20.02;6.63;;;;;;;13.16;100.00;101770.03;5078973;28;20036;-74
2022/10/28 01:52:03;;;;;;;16.17;6.40;;;;;;;13.12;100.00;101769.56;5077577;28;20067;-73
2022/10/28 01:54:33;;;;;;;17.50;7.00;;;;;;;13.14;100.00;101767.44;5088923;28;20072;-74
2022/10/28 01:57:02;;;;;;;18.85;6.28;;;;;;;13.11;100.00;101772.50;5086380;28;20085;-74
2022/10/28 01:59:29;;;;;;;17.08;6.95;;;;;;;13.15;100.00;101768.31;5068505;28;20024;-74
2022/10/28 02:01:54;;;;;;;;;;;;;;;13.08;100.00;101770.97;5088642;28;20474;-74
2022/10/28 02:04:20;;;;;;;22.27;7.80;;;;;;;13.13;100.00;101764.91;5089915;28;19915;-74
2022/10/28 02:06:49;;;;;;;17.83;6.50;;;;;;;13.11;100.00;101769.75;5091230;28;20039;-74
2022/10/28 02:09:14;;;;;;;14.15;6.68;;;;;;;13.06;100.00;101770.31;5089734;28;20039;-74
2022/10/28 02:11:58;;;;;;;22.50;6.87;;;;;;;13.00;100.00;101767.47;5072701;28;20024;-74
2022/10/28 02:14:44;;;;;;;15.15;6.82;;;;;;;13.02;100.00;101766.25;5072487;28;20055;-74
2022/10/28 02:17:35;;;;;;;16.92;6.80;;;;;;;13.09;100.00;101772.72;5090568;28;20023;-74
2022/10/28 02:20:08;;;;;;;21.33;7.78;;;;;;;13.18;100.00;101774.28;5090195;28;20032;-75
2022/10/28 02:22:51;;;;;;;16.55;6.45;;;;;;;13.20;100.00;101765.84;5089218;28;20119;-74
2022/10/28 02:25:24;;;;;;;24.00;7.22;;;;;;;13.15;100.00;101769.19;5090464;28;20506;-74
2022/10/28 02:27:57;;;;;;;20.73;6.70;;;;;;;13.12;100.00;101764.06;5091046;28;20058;-73
2022/10/28 02:30:27;;;;;;;22.35;6.90;;;;;;;13.11;100.00;101761.47;5089210;28;20039;-73
2022/10/28 02:32:58;;;;;;;21.88;6.35;;;;;;;13.03;100.00;101762.44;5091171;28;20069;-74
2022/10/28 02:35:36;;;;;;;25.73;6.47;;;;;;;13.09;100.00;101760.84;5091033;28;20028;-74
2022/10/28 02:38:03;;;;;;;;;;;;;;;13.10;100.00;101760.66;5091548;28;20036;-74
2022/10/28 02:40:31;;;;;;;18.38;6.53;;;;;;;13.05;100.00;101754.00;5091899;28;19924;-75
2022/10/28 02:43:05;;;;;;;18.15;6.80;;;;;;;13.11;100.00;101744.97;5087481;28;20158;-74
2022/10/28 02:45:36;;;;;;;19.70;6.32;;;;;;;13.05;100.00;101751.25;5083705;28;20115;-76
2022/10/28 02:48:16;;;;;;;23.95;7.10;;;;;;;13.02;100.00;101752.50;5073359;28;20035;-75
2022/10/28 02:50:47;;;;;;;16.17;7.40;;;;;;;13.03;100.00;101759.69;5070902;28;20479;-73
2022/10/28 02:53:21;;;;;;;31.23;7.05;;;;;;;13.01;100.00;101767.28;5089491;28;20046;-74
2022/10/28 02:55:51;;;;;;;18.48;7.22;;;;;;;13.10;100.00;101770.78;5089033;28;20036;-73
2022/10/28 02:58:17;;;;;;;20.33;6.82;;;;;;;13.26;100.00;101759.56;5091410;28;20032;-73
2022/10/28 03:00:44;;;;;;;19.27;7.57;;;;;;;13.37;100.00;101751.69;5047139;28;20066;-73
2022/10/28 03:03:09;;;;;;;19.85;6.53;;;;;;;13.41;100.00;101750.25;5089720;28;20028;-74
2022/10/28 03:05:35;;;;;;;22.80;7.27;;;;;;;13.52;100.00;101740.63;5090150;28;20368;-73
2022/10/28 03:08:00;;;;;;;17.57;6.80;;;;;;;13.67;100.00;101746.94;5089305;28;20056;-73
2022/10/28 03:10:25;;;;;;;19.33;6.67;;;;;;;13.70;100.00;101752.03;5098583;28;20115;-73
2022/10/28 03:12:50;;;;;;;23.10;7.53;;;;;;;13.69;100.00;101750.34;5068476;28;20031;-73
2022/10/28 03:15:16;;;;;;;20.37;6.60;;;;;;;13.72;100.00;101736.19;5079110;28;20028;-74
2022/10/28 03:17:41;;;;;;;16.47;7.73;;;;;;;13.73;100.00;101729.63;5090010;28;20364;-73
2022/10/28 03:20:07;;;;;;;19.27;7.07;;;;;;;13.84;100.00;101741.00;5086492;28;20102;-73
2022/10/28 03:22:32;;;;;;;18.93;7.80;;;;;;;13.82;100.00;101733.97;5084488;28;20059;-75
2022/10/28 03:24:57;;;;;;;15.17;6.80;;;;;;;13.80;100.00;101733.31;5090372;28;20063;-73
2022/10/28 03:27:23;;;;;;;22.70;6.97;;;;;;;13.81;100.00;101732.25;5073070;28;20554;-72
2022/10/28 03:29:48;;;;;;;20.37;6.50;;;;;;;13.79;100.00;101729.72;5072527;28;20054;-73
2022/10/28 03:32:14;;;;;;;32.37;7.73;;;;;;;13.78;100.00;101721.63;5085702;28;20969;-72
2022/10/28 03:34:39;;;;;;;21.97;6.97;;;;;;;13.78;100.00;101733.50;5090345;28;20027;-73
2022/10/28 03:37:04;;;;;;;19.80;6.60;;;;;;;13.71;100.00;101729.00;5087899;28;20157;-73
2022/10/28 03:39:30;;;;;;;19.23;6.83;;;;;;;13.71;100.00;101726.25;5086822;28;20451;-73
2022/10/28 03:41:55;;;;;;;18.60;7.57;;;;;;;13.72;100.00;101727.94;5080299;28;20566;-73
2022/10/28 03:44:20;;;;;;;21.77;6.73;;;;;;;13.67;100.00;101728.50;5089996;28;20024;-73
2022/10/28 03:46:45;;;;;;;25.70;7.40;;;;;;;13.65;100.00;101718.72;5084037;28;20105;-74
2022/10/28 03:49:11;;;;;;;20.43;6.60;;;;;;;13.65;100.00;101719.59;5087543;28;20036;-73
2022/10/28 03:51:36;;;;;;;25.23;6.83;;;;;;;13.69;100.00;101726.44;5089006;28;20024;-73
2022/10/28 03:54:01;;;;;;;18.20;6.77;;;;;;;13.63;100.00;101729.09;5087915;28;20081;-74
2022/10/28 03:56:27;;;;;;;18.70;7.30;;;;;;;13.70;100.00;101730.88;5064092;28;20472;-74
2022/10/28 03:58:52;;;;;;;15.17;6.70;;;;;;;13.82;100.00;101722.97;5062796;28;20045;-73
2022/10/28 04:01:17;;;;;;;23.90;7.60;;;;;;;13.81;100.00;101726.75;5087940;28;20023;-74
2022/10/28 04:03:43;;;;;;;31.23;7.30;;;;;;;13.71;100.00;101727.06;5086874;28;20055;-73
2022/10/28 04:06:09;;;;;;;10.57;6.33;;;;;;;13.82;100.00;101722.97;5083071;28;20028;-74
2022/10/28 04:08:35;;;;;;;17.30;6.13;;;;;;;13.88;100.00;101722.16;5089794;28;20073;-73
2022/10/28 04:11:00;;;;;;;23.67;6.85;;;;;;;13.86;100.00;101719.59;5081525;28;20028;-74
2022/10/28 04:13:25;;;;;;;24.23;5.97;;;;;;;13.87;100.00;101712.22;5071720;28;20020;-74
2022/10/28 04:15:50;;;;;;;19.50;5.83;;;;;;;13.89;100.00;101710.97;5068587;28;20034;-73
2022/10/28 04:18:16;;;;;;;19.17;6.97;;;;;;;13.94;100.00;101711.19;5090239;28;20064;-74
2022/10/28 04:20:41;;;;;;;16.57;6.60;;;;;;;13.91;100.00;101710.75;5088625;28;20522;-73
2022/10/28 04:23:08;;;;;;;22.80;6.83;;;;;;;14.08;100.00;101720.47;5072207;28;20039;-74
2022/10/28 04:25:33;;;;;;;28.33;6.90;;;;;;;14.05;100.00;101718.09;5070317;28;20039;-73
2022/10/28 04:27:58;;;;;;;20.60;6.97;;;;;;;13.97;100.00;101715.44;5089754;28;20479;-73
2022/10/28 04:30:24;;;;;;;33.87;6.47;;;;;;;14.07;100.00;101721.47;5083114;28;20095;-73
2022/10/28 04:32:49;;;;;;;16.93;6.53;;;;;;;14.15;100.00;101707.56;5081736;28;20491;-73
2022/10/28 04:35:14;;;;;;;20.20;6.43;;;;;;;14.06;100.00;101711.50;5084538;28;20032;-73
2022/10/28 04:37:40;;;;;;;20.47;6.43;;;;;;;14.01;100.00;101714.00;5085608;28;20025;-73
2022/10/28 04:40:06;;;;;;;23.90;7.20;;;;;;;13.95;100.00;101706.53;5070265;28;20112;-73
2022/10/28 04:42:32;;;;;;;23.50;6.43;;;;;;;13.98;100.00;101706.16;5068683;28;20123;-73
2022/10/28 04:44:57;;;;;;;20.03;6.20;;;;;;;14.01;100.00;101711.25;5088073;28;20177;-73
2022/10/28 04:47:22;;;;;;;21.23;6.17;;;;;;;13.96;100.00;101720.13;5087551;28;20028;-73
2022/10/28 04:49:48;;;;;;;26.63;6.93;;;;;;;14.08;100.00;101714.94;5054671;28;20050;-74
2022/10/28 04:52:13;;;;;;;25.00;7.67;;;;;;;14.05;100.00;101720.84;5084872;28;20039;-73
2022/10/28 04:54:38;;;;;;;26.97;5.97;;;;;;;13.99;100.00;101719.72;5084733;28;20462;-74
2022/10/28 04:57:04;;;;;;;26.20;5.90;;;;;;;13.94;100.00;101726.88;5086511;28;20028;-73
2022/10/28 04:59:29;;;;;;;30.27;6.43;;;;;;;13.85;100.00;101726.16;5089861;28;20120;-73
2022/10/28 05:01:54;;;;;;;22.50;6.33;;;;;;;13.89;100.00;101724.72;5087571;28;20058;-73
2022/10/28 05:04:20;;;;;;;23.07;6.83;;;;;;;13.81;100.00;101727.59;5069928;28;20070;-74
2022/10/28 05:06:45;;;;;;;19.07;7.00;;;;;;;13.76;100.00;101724.59;5088368;28;20123;-73
2022/10/28 05:09:11;;;;;;;20.57;6.03;;;;;;;13.76;100.00;101721.84;5088594;28;20020;-73
2022/10/28 05:11:36;;;;;;;19.33;6.43;;;;;;;13.92;100.00;101704.22;5072645;28;20031;-73
2022/10/28 05:14:01;;;;;;;17.10;5.80;;;;;;;13.97;100.00;101704.44;5084193;28;20107;-73
2022/10/28 05:16:27;;;;;;;14.27;6.00;;;;;;;13.98;100.00;101708.91;5087767;28;20101;-74
2022/10/28 05:18:52;;;;;;;27.80;6.30;;;;;;;13.92;100.00;101710.53;5087872;28;20107;-73
2022/10/28 05:21:17;;;;;;;23.37;6.53;;;;;;;13.94;100.00;101710.34;5068301;28;20484;-74
2022/10/28 05:23:43;;;;;;;14.90;5.77;;;;;;;13.89;100.00;101710.09;5078075;28;20554;-73
2022/10/28 05:26:08;;;;;;;21.33;5.83;;;;;;;13.88;100.00;101706.47;5068830;28;20128;-73
2022/10/28 05:28:34;;;;;;;25.03;6.53;;;;;;;13.85;100.00;101709.66;5070486;28;20119;-72
2022/10/28 05:30:59;;;;;;;18.13;5.90;;;;;;;13.76;100.00;101707.22;5086013;28;20054;-73
2022/10/28 05:33:24;;;;;;;20.33;6.30;;;;;;;13.77;100.00;101707.00;5087663;28;20127;-73
2022/10/28 05:35:50;;;;;;;19.97;6.40;;;;;;;13.74;100.00;101712.94;5072088;28;20024;-75
2022/10/28 05:38:15;;;;;;;29.47;5.97;;;;;;;13.72;100.00;101709.50;5093393;28;20032;-75
2022/10/28 05:40:41;;;;;;;20.60;7.30;;;;;;;13.71;100.00;101705.03;5092678;28;20432;-74
2022/10/28 05:43:08;;;;;;;28.43;6.70;;;;;;;13.84;100.00;101694.19;5093385;28;20068;-74
2022/10/28 05:45:34;;;;;;;24.85;6.13;;;;;;;13.86;100.00;101688.44;5091682;28;20118;-74
2022/10/28 05:47:59;;;;;;;27.83;6.37;;;;;;;13.93;100.00;101692.13;5092408;28;20535;-74
2022/10/28 05:50:25;;;;;;;17.70;6.17;;;;;;;13.87;100.00;101690.16;5091054;28;20384;-74
2022/10/28 05:52:53;;;;;;;23.30;6.47;;;;;;;13.86;100.00;101685.69;5092462;28;20490;-74
2022/10/28 05:55:20;;;;;;;17.73;6.55;;;;;;;13.81;100.00;101696.44;5072840;28;20406;-74
2022/10/28 05:57:46;;;;;;;18.98;5.65;;;;;;;13.84;100.00;101690.56;5073111;28;20044;-74
2022/10/28 06:00:13;;;;;;;20.08;6.20;;;;;;;13.77;100.00;101704.25;5084331;28;20097;-74
2022/10/28 06:02:39;;;;;;;26.25;6.68;;;;;;;13.75;100.00;101694.47;5088904;28;20029;-75
2022/10/28 06:05:05;;;;;;;13.98;6.18;;;;;;;13.72;100.00;101703.16;5083682;28;20032;-74
2022/10/28 06:07:30;;;;;;;30.83;8.33;;;;;;;13.75;100.00;101703.59;5091023;28;20085;-75
2022/10/28 06:09:56;;;;;;;18.43;6.17;;;;;;;13.81;100.00;101705.56;5089348;28;20058;-74
2022/10/28 06:12:21;;;;;;;20.90;5.73;;;;;;;13.77;100.00;101697.91;5072734;28;20394;-75
2022/10/28 06:14:46;;;;;;;22.93;6.20;;;;;;;13.84;100.00;101693.31;5079990;28;20024;-75
2022/10/28 06:17:12;;;;;;;13.10;6.20;;;;;;;13.93;100.00;101692.13;5088227;28;20020;-74
2022/10/28 06:19:37;;;;;;;21.90;6.90;;;;;;;13.86;100.00;101685.69;5087472;28;20031;-75
2022/10/28 06:22:02;;;;;;;24.27;5.63;;;;;;;13.92;100.00;101687.69;5082459;28;20036;-75
2022/10/28 06:24:28;;;;;;;14.00;5.77;;;;;;;13.93;100.00;101681.94;5078609;28;20356;-75
2022/10/28 06:26:53;;;;;;;21.20;6.40;;;;;;;13.92;100.00;101684.91;5088375;28;20047;-76
2022/10/28 06:29:19;;;;;;;17.97;5.83;;;;;;;13.85;100.00;101682.09;5086604;28;20382;-74
2022/10/28 06:31:44;;;;;;;16.90;5.53;;;;;;;13.90;100.00;101681.50;5087511;28;20079;-75
2022/10/28 06:34:11;;;;;;;19.23;5.87;;;;;;;13.84;100.00;101682.28;5089302;28;20052;-75
2022/10/28 06:36:36;;;;;;;24.67;7.35;;;;;;;13.84;100.00;101680.41;5090467;28;20035;-75
2022/10/28 06:39:01;;;;;;;16.63;6.50;;;;;;;13.85;100.00;101676.59;5090042;28;20455;-75
2022/10/28 06:41:27;;;;;;;22.90;6.33;;;;;;;13.97;100.00;101686.00;5091800;28;20438;-75
2022/10/28 06:43:52;;;;;;;16.37;5.90;;;;;;;13.95;100.00;101688.13;5073852;28;20032;-74
2022/10/28 06:46:17;;;;;;;18.57;6.33;;;;;;;13.99;100.00;101685.81;5088112;28;20102;-75
2022/10/28 06:48:43;;;;;;;23.63;7.10;;;;;;;13.85;100.00;101679.34;5089738;28;20035;-74
2022/10/28 06:51:08;;;;;;;18.37;6.03;;;;;;;13.96;100.00;101694.47;5070856;28;20422;-76
2022/10/28 06:53:34;;;;;;;15.40;6.17;;;;;;;14.02;100.00;101699.19;5092754;28;20258;-74
2022/10/28 06:55:59;;;;;;;26.50;5.87;;;;;;;14.01;100.00;101703.00;5087034;28;20032;-74
2022/10/28 06:58:25;;;;;;;27.57;7.20;;;;;;;13.97;100.00;101691.53;5092165;28;20071;-75
2022/10/28 07:00:51;;;;;;;21.77;7.13;;;;;;;14.05;100.00;101704.31;5091343;28;20487;-74
2022/10/28 07:03:17;;;;;;;21.35;6.95;;;;;;;14.20;100.00;101705.94;5091956;28;20032;-74
2022/10/28 07:05:44;;;;;;;20.48;6.13;;;;;;;14.18;100.00;101710.78;5089183;28;20040;-73
2022/10/28 07:08:10;;;;;;;;;;;;;;;14.22;100.00;101703.00;5073753;28;20028;-73
2022/10/28 07:10:35;;;;;;;32.33;7.03;;;;;;;14.24;100.00;101703.66;5091245;28;19932;-73
2022/10/28 07:13:03;;;;;;;17.23;6.03;;;;;;;14.24;100.00;101706.41;5090539;28;20057;-74
2022/10/28 07:15:28;;;;;;;24.10;6.10;;;;;;;14.29;100.00;101717.66;5090621;28;20024;-74
2022/10/28 07:17:55;;;;;;;24.20;7.17;;;;;;;14.35;100.00;101719.66;5085204;28;20051;-73
2022/10/28 07:20:22;;;;;;;16.63;6.80;;;;;;;14.40;100.00;101722.66;5091745;28;20543;-73
2022/10/28 07:22:53;;;;;;;;;;;;;;;14.53;100.00;101720.84;5073782;28;20057;-72
2022/10/28 07:25:19;;;;;;;24.48;6.40;;;;;;;14.52;100.00;101719.13;5090749;28;20329;-74
2022/10/28 07:27:44;;;;;;;18.17;6.77;;;;;;;14.70;99.85;101724.13;5090796;28;20028;-73
2022/10/28 07:30:10;;;;;;;30.90;6.93;;;;;;;14.67;100.00;101732.81;5091331;28;20077;-73
2022/10/28 07:32:35;;;;;;;24.60;7.43;;;;;;;14.74;100.00;101736.47;5087534;28;20032;-73
2022/10/28 07:35:01;;;;;;;19.40;7.10;;;;;;;14.75;99.83;101728.00;5089674;28;20275;-73
2022/10/28 07:37:26;;;;;;;28.20;6.57;;;;;;;14.86;99.71;101732.06;5090744;28;20374;-74
2022/10/28 07:39:51;;;;;;;21.90;6.23;;;;;;;14.97;99.21;101726.84;5091120;28;20548;-73
2022/10/28 07:42:16;;;;;;;27.30;6.30;;;;;;;15.05;98.59;101721.13;5091227;28;20028;-74
2022/10/28 07:44:42;;;;;;;19.90;6.23;;;;;;;15.10;98.61;101728.81;5089311;28;20539;-73
2022/10/28 07:47:07;;;;;;;21.60;6.70;;;;;;;15.34;96.90;101728.31;5071414;28;20085;-74
2022/10/28 07:49:32;;;;;;;16.97;6.00;;;;;;;15.34;96.84;101723.66;5089265;28;20036;-74
2022/10/28 07:51:58;;;;;;;26.97;6.37;;;;;;;15.34;97.63;101722.78;5085976;28;20067;-73
2022/10/28 07:54:23;;;;;;;14.70;6.10;;;;;;;15.39;97.15;101717.50;5086102;28;20028;-73
2022/10/28 07:56:48;;;;;;;21.03;6.27;;;;;;;15.47;95.90;101723.69;5089244;28;20089;-74
2022/10/28 07:59:14;;;;;;;20.90;5.40;;;;;;;15.53;95.91;101722.00;5087510;28;20398;-73
2022/10/28 08:01:39;;;;;;;25.57;6.90;;;;;;;15.56;95.55;101732.63;5088703;28;20111;-72
2022/10/28 08:04:04;;;;;;;18.67;6.53;;;;;;;15.66;94.74;101727.56;5087849;28;20028;-73
2022/10/28 08:06:30;;;;;;;38.67;7.63;;;;;;;15.65;94.84;101726.72;5070951;28;20383;-73
2022/10/28 08:08:55;;;;;;;32.30;6.70;;;;;;;15.77;94.14;101738.00;5084484;28;20050;-74
2022/10/28 08:11:22;;;;;;;31.83;7.53;;;;;;;15.81;94.01;101745.66;5089258;28;20378;-74
2022/10/28 08:13:48;;;;;;;;;;;;;;;15.82;93.81;101746.50;5088497;28;20076;-73
2022/10/28 08:16:13;;;;;;;25.70;6.47;;;;;;;15.88;93.82;101743.75;5089471;28;20015;-73
2022/10/28 08:18:39;;;;;;;18.83;6.67;;;;;;;15.94;92.96;101736.53;5086059;28;20028;-73
2022/10/28 08:21:06;;;;;;;15.03;6.20;;;;;;;16.01;93.27;101742.94;5086858;28;20412;-73
2022/10/28 08:23:32;;;;;;;24.35;6.45;;;;;;;16.03;94.03;101740.81;5088374;28;20483;-73
2022/10/28 08:25:57;;;;;;;17.77;6.67;;;;;;;16.14;92.93;101746.56;5067899;28;20046;-73
2022/10/28 08:28:23;;;;;;;21.00;6.77;;;;;;;16.22;92.14;101746.34;5056830;28;20054;-73
2022/10/28 08:30:49;;;;;;;17.90;5.97;;;;;;;16.26;92.44;101746.75;5088642;28;20024;-73
2022/10/28 08:33:15;;;;;;;22.42;7.53;;;;;;;16.33;91.52;101740.16;5088124;28;20020;-72
2022/10/28 08:35:41;;;;;;;19.67;6.33;;;;;;;16.40;91.48;101751.28;5088741;28;20035;-73
2022/10/28 08:38:06;;;;;;;14.57;5.97;;;;;;;16.42;91.35;101744.47;5086962;28;20038;-73
2022/10/28 08:41:06;;;;;;;14.17;6.30;;;;;;;16.47;91.30;101754.88;5088932;28;20376;-73
2022/10/28 08:44:17;;;;;;;25.75;6.30;;;;;;;16.48;91.60;101738.06;5086298;28;20101;-72
2022/10/28 08:47:00;;;;;;;16.17;5.53;;;;;;;16.56;91.46;101742.53;5088667;28;20464;-72
2022/10/28 08:49:29;;;;;;;21.65;5.85;;;;;;;16.59;90.95;101744.88;5087780;28;20028;-73
2022/10/28 08:52:08;;;;;;;27.90;7.25;;;;;;;16.60;90.88;101746.59;5070358;28;20059;-73
2022/10/28 08:54:57;;;;;;;16.20;5.88;;;;;;;16.60;90.82;101739.13;5086746;28;20097;-72
2022/10/28 08:57:36;;;;;;;26.95;6.78;;;;;;;16.62;91.20;101744.44;5070932;28;20039;-73
2022/10/28 09:00:04;;;;;;;20.98;7.35;;;;;;;16.68;90.81;101740.81;5087966;28;20036;-73
2022/10/28 09:02:43;;;;;;;31.20;6.72;;;;;;;16.67;91.10;101739.97;5089397;28;20027;-73
2022/10/28 09:05:22;;;;;;;26.48;6.63;;;;;;;16.70;91.04;101750.59;5085566;28;20077;-73
2022/10/28 09:07:48;;;;;;;20.90;5.70;;;;;;;16.71;91.22;101759.78;5089671;28;20062;-73
2022/10/28 09:10:16;;;;;;;21.43;6.17;;;;;;;16.74;90.86;101751.00;5084871;28;20119;-73
2022/10/28 09:13:00;;;;;;;25.58;7.22;;;;;;;16.84;91.17;101746.75;5086917;28;20031;-73
2022/10/28 09:15:37;;;;;;;20.40;6.78;;;;;;;16.93;90.63;101747.38;5086181;28;20383;-73
2022/10/28 09:18:19;;;;;;;22.67;6.65;;;;;;;16.99;90.62;101740.97;5088554;28;20023;-73
2022/10/28 09:20:52;;;;;;;16.58;6.00;;;;;;;17.02;90.34;101749.69;5087983;28;20036;-73
2022/10/28 09:23:22;;;;;;;32.55;6.70;;;;;;;17.16;90.25;101750.50;5087122;28;20080;-73
2022/10/28 09:26:12;;;;;;;21.00;6.45;;;;;;;17.25;90.22;101749.19;5088402;28;20031;-73
2022/10/28 09:29:03;;;;;;;21.52;5.82;;;;;;;17.50;89.37;101755.72;5088761;28;20080;-73
2022/10/28 09:31:51;;;;;;;17.73;6.18;;;;;;;17.61;87.74;101752.25;5083371;28;20119;-74
2022/10/28 09:34:45;;;;;;;25.48;7.43;;;;;;;17.67;87.66;101760.53;5082213;28;20024;-73
2022/10/28 09:37:20;;;;;;;26.55;6.28;;;;;;;17.86;86.67;101745.72;5059593;28;20056;-73
2022/10/28 09:40:08;;;;;;;25.17;5.57;;;;;;;18.00;87.44;101746.47;5089510;28;20036;-73
2022/10/28 09:42:39;;;;;;;25.70;6.35;;;;;;;18.04;86.11;101740.25;5078374;28;20040;-73
2022/10/28 09:45:13;;;;;;;19.58;5.63;;;;;;;18.26;85.99;101743.50;5088009;28;20471;-73
2022/10/28 09:47:54;;;;;;;22.35;5.68;;;;;;;18.48;84.17;101744.84;5087665;28;20464;-73
2022/10/28 09:50:26;;;;;;;19.00;6.65;;;;;;;18.59;83.76;101733.00;5089654;28;20100;-74
2022/10/28 09:53:01;;;;;;;21.00;6.25;;;;;;;18.59;84.73;101739.41;5089499;28;20025;-73
2022/10/28 09:55:28;;;;;;;21.15;6.43;;;;;;;18.63;84.38;101721.19;5082482;28;20028;-74
2022/10/28 09:57:53;;;;;;;28.48;5.47;;;;;;;18.66;84.58;101720.75;5089494;28;20066;-73
2022/10/28 10:00:19;;;;;;;42.67;5.70;;;;;;;18.81;83.35;101723.16;5070455;28;20040;-74
2022/10/28 10:02:44;;;;;;;26.17;6.47;;;;;;;18.99;82.43;101723.19;5089559;28;20028;-73
2022/10/28 10:05:16;;;;;;;20.90;5.77;;;;;;;19.10;81.91;101737.16;5069482;28;20012;-74
2022/10/28 10:07:56;;;;;;;16.00;5.53;;;;;;;19.21;82.07;101749.44;5089516;28;20111;-73
2022/10/28 10:10:30;;;;;;;23.27;5.80;;;;;;;19.20;81.83;101745.78;5088851;28;20032;-73
2022/10/28 10:12:58;;;;;;;24.45;5.30;;;;;;;19.25;81.82;101748.75;5088459;28;20028;-73
2022/10/28 10:15:47;;;;;;;32.17;5.78;;;;;;;19.36;80.86;101736.03;5070331;28;20024;-74
2022/10/28 10:18:21;;;;;;;20.02;5.70;;;;;;;19.45;81.06;101748.50;5083799;28;20028;-73
2022/10/28 10:20:52;;;;;;;16.98;5.50;;;;;;;19.56;79.95;101747.72;5068578;28;20074;-73
2022/10/28 10:23:25;;;;;;;19.20;4.97;;;;;;;19.55;80.07;101741.31;5088620;28;20046;-74
2022/10/28 10:25:57;;;;;;;20.10;5.22;;;;;;;19.58;80.33;101742.78;5084695;28;20027;-73
2022/10/28 10:28:25;;;;;;;17.52;6.18;;;;;;;19.61;79.04;101733.97;5087302;28;20055;-73
2022/10/28 10:30:53;;;;;;;22.65;5.88;;;;;;;19.58;79.25;101746.41;5073314;28;20035;-72
2022/10/28 10:33:23;;;;;;;23.27;5.57;;;;;;;19.56;79.39;101751.34;5088304;28;20028;-73
2022/10/28 10:36:02;;;;;;;25.15;5.85;;;;;;;19.54;79.55;101753.50;5072538;28;20023;-73
2022/10/28 10:38:29;;;;;;;30.88;5.68;;;;;;;19.57;79.39;101746.63;5089778;28;20102;-73
2022/10/28 10:40:55;;;;;;;21.33;5.35;;;;;;;19.55;79.20;101746.03;5086899;28;20104;-73
2022/10/28 10:43:32;;;;;;;11.95;4.80;;;;;;;19.52;79.26;101757.63;5086005;28;20039;-73
2022/10/28 10:45:58;;;;;;;29.98;5.80;;;;;;;19.57;78.87;101747.50;5089173;28;20036;-73
2022/10/28 10:48:24;;;;;;;19.80;5.97;;;;;;;19.56;78.67;101747.72;5089368;28;20038;-73
2022/10/28 10:50:49;;;;;;;16.40;6.27;;;;;;;19.59;78.59;101750.03;5071770;28;20035;-73
2022/10/28 10:53:24;;;;;;;20.52;6.03;;;;;;;19.56;79.24;101751.34;5090427;28;20042;-73
2022/10/28 10:55:53;;;;;;;21.00;5.72;;;;;;;19.59;78.88;101750.03;5079044;28;20035;-73
2022/10/28 10:58:21;;;;;;;21.55;5.53;;;;;;;19.68;79.08;101755.03;5090610;28;20032;-73
2022/10/28 11:00:49;;;;;;;18.17;5.53;;;;;;;19.62;79.03;101755.13;5065036;28;20028;-73
2022/10/28 11:03:21;;;;;;;17.73;6.35;;;;;;;19.70;78.70;101760.38;5073553;28;20032;-73
2022/10/28 11:05:48;;;;;;;34.30;6.38;;;;;;;19.76;78.69;101751.94;5090837;28;20024;-73
2022/10/28 11:08:29;;;;;;;23.35;5.40;;;;;;;19.88;77.95;101757.53;5088609;28;20054;-73
2022/10/28 11:11:19;;;;;;;23.55;5.30;;;;;;;19.96;77.76;101769.16;5090740;28;20032;-74
2022/10/28 11:13:46;;;;;;;24.65;5.90;;;;;;;20.04;77.24;101762.44;5087093;28;20032;-74
2022/10/28 11:16:22;;;;;;;21.75;5.65;;;;;;;20.05;76.92;101762.19;5091488;28;20076;-72
2022/10/28 11:18:52;;;;;;;19.35;5.68;;;;;;;20.07;77.10;101759.22;5083428;28;21962;-73
2022/10/28 11:21:43;;;;;;;37.88;6.07;;;;;;;20.07;76.45;101764.78;5087903;28;20558;-73
2022/10/28 11:24:14;;;;;;;21.58;5.53;;;;;;;20.12;77.26;101770.50;5083318;28;20067;-73
2022/10/28 11:26:50;;;;;;;19.63;5.60;;;;;;;20.14;77.41;101752.47;5084429;28;20440;-74